Nearby METAR Reports

 

KMTN - Baltimore/Martin, Maryland, USA
Distance from station: SSE 8mi, 13km
Updated: Fri, 28-Nov-2014 7:50am EST
Few Clouds
Few Clouds
 Wind from WNW
Wind: WNW 10 mph , 17 km/h, Gust: 17 mph , 28 km/h
Temperature: 34°F , 1°C
Wind Chill: 26°F , -3°C
Dew Point: 27°F , -3°C
Humidity: 75%
Barometer: 30.28 inHg , 1025.4 hPa
Clouds: Few Clouds
Visibility: 10 miles , 16 km
Cloud details: Few Clouds 15000 ft
2014/11/28 12:50 KMTN 281250Z 29009G15KT 10SM FEW150 01/M03 A3028
KDMH - Baltimore/Dwntwn, Maryland, USA
Distance from station: SW 12mi, 19km
Updated: Fri, 28-Nov-2014 7:54am EST

 
Temperature: 34°F , 1°C
Dew Point: 21°F , -6°C
Humidity: 60%
Barometer: 30.26 inHg , 1024.7 hPa
2014/11/28 12:54 KDMH 281254Z AUTO 01/M06 A3026 RMK AO1 SLP248 T00061056
 
KBWI - Balto/Wash Intl, Maryland, USA
Distance from station: SSW 20mi, 33km
Updated: Fri, 28-Nov-2014 7:54am EST
Few Clouds
Few Clouds
 Wind from W
Wind: W 9 mph , 15 km/h
Temperature: 34°F , 1°C
Wind Chill: 27°F , -3°C
Dew Point: 21°F , -6°C
Humidity: 60%
Barometer: 30.26 inHg , 1024.7 hPa
Clouds: Few Clouds
Visibility: 10 miles , 16 km
Cloud details: Few Clouds 5000 ft
2014/11/28 12:54 KBWI 281254Z 28008KT 10SM FEW050 01/M06 A3026 RMK AO2 SLP250 VIRGA W-N T00061056
KDMW - Carroll Cnty, Maryland, USA
Distance from station: WNW 30mi, 48km
Updated: Fri, 28-Nov-2014 7:55am EST
Overcast
Overcast
 Wind from WNW
Wind: WNW 7 mph , 11 km/h
Temperature: 30°F , -1°C
Wind Chill: 23°F , -5°C
Dew Point: 25°F , -4°C
Humidity: 80%
Barometer: 30.24 inHg , 1024 hPa
Clouds: Overcast
Visibility: 10 miles , 16 km
Cloud details: Overcast 6500 ft
2014/11/28 12:55 KDMW 281255Z AUTO 29006KT 10SM OVC065 M01/M04 A3024 RMK AO2
 
KNAK - Annapolis/Naval, Maryland, USA
Distance from station: S 30mi, 48km
Updated: Fri, 28-Nov-2014 7:54am EST
Clear
Clear
 Wind from WNW
Wind: WNW 8 mph , 13 km/h
Temperature: 36°F , 2°C
Wind Chill: 30°F , -1°C
Dew Point: 21°F , -6°C
Humidity: 56%
Barometer: 30.27 inHg , 1025.1 hPa
Clouds: Clear
Visibility: 10 miles , 16 km
2014/11/28 12:54 KNAK 281254Z AUTO 29007KT 10SM CLR 02/M06 A3027 RMK AO2 SLP250 T00171056
KW29 - Stevensville, Maryland, USA
Distance from station: SSE 31mi, 50km
Updated: Fri, 28-Nov-2014 7:54am EST

 Wind from NW
Wind: NW 12 mph , 19 km/h, Gust: 17 mph , 28 km/h
Temperature: 34°F , 1°C
Wind Chill: 25°F , -4°C
Dew Point: 23°F , -5°C
Humidity: 65%
Barometer: 30.27 inHg , 1025.1 hPa
Visibility: 10 miles , 16 km
2014/11/28 12:54 KW29 281254Z AUTO 31010G15KT 10SM 01/M05 A3027 RMK AO1
 
KCGS - College Park, Maryland, USA
Distance from station: SW 38mi, 61km
Updated: Fri, 28-Nov-2014 7:50am EST
Clear
Clear
 Wind from W
Wind: W 5 mph , 7 km/h
Temperature: 34°F , 1°C
Wind Chill: 29°F , -2°C
Dew Point: 23°F , -5°C
Humidity: 65%
Barometer: 30.28 inHg , 1025.4 hPa
Clouds: Clear
Visibility: 10 miles , 16 km
2014/11/28 12:50 KCGS 281250Z AUTO 26004KT 10SM CLR 01/M05 A3028 RMK AO1
KGAI - Gaithersburg, Maryland, USA
Distance from station: WSW 40mi, 65km
Updated: Fri, 28-Nov-2014 7:55am EST
Overcast
Overcast
 Wind from W
Wind: W 7 mph , 11 km/h
Temperature: 30°F , -1°C
Wind Chill: 23°F , -5°C
Dew Point: 21°F , -6°C
Humidity: 69%
Barometer: 30.31 inHg , 1026.4 hPa
Clouds: Overcast
Visibility: 10 miles , 16 km
Cloud details: Mostly cloudy 3700 ft
Mostly cloudy 4700 ft
Overcast 7000 ft
2014/11/28 12:55 KGAI 281255Z 28006KT 10SM BKN037 BKN047 OVC070 M01/M06 A3031 RMK AO1
 
KTHV - York, Pennsylvania, USA
Distance from station: NNW 40mi, 65km
Updated: Fri, 28-Nov-2014 7:53am EST
Clear
Clear
 Wind from WNW
Wind: WNW 9 mph , 15 km/h
Temperature: 30°F , -1°C
Wind Chill: 22°F , -6°C
Dew Point: 21°F , -6°C
Humidity: 69%
Barometer: 30.25 inHg , 1024.4 hPa
Clouds: Clear
Visibility: 10 miles , 16 km
2014/11/28 12:53 KTHV 281253Z AUTO 29008KT 10SM CLR M01/M06 A3025 RMK AO2 SLP251 T10111061
KFDK - Frederick, Maryland, USA
Distance from station: W 47mi, 75km
Updated: Fri, 28-Nov-2014 7:45am EST
Light snow, Partly cloudy
Light snow, Partly cloudy
 Wind from NW
Wind: NW 6 mph , 9 km/h
Summary: Light Snow
Clouds: Partly cloudy
Visibility: 10 miles , 16 km
Cloud details: Partly cloudy 2900 ft
2014/11/28 12:45 KFDK 281245Z 31005KT 10SM -SN SCT029 01/M5 A3031
 
KESN - Easton/Newnam, Maryland, USA
Distance from station: SSE 48mi, 78km
Updated: Fri, 28-Nov-2014 7:50am EST
Clear
Clear
 Wind from NNW
Wind: NNW 6 mph , 9 km/h
Temperature: 36°F , 2°C
Wind Chill: 31°F , -1°C
Dew Point: 27°F , -3°C
Humidity: 70%
Barometer: 30.30 inHg , 1026.1 hPa
Clouds: Clear
Visibility: 10 miles , 16 km
2014/11/28 12:50 KESN 281250Z 34005KT 10SM SKC 02/M03 A3030
KDCA - Washington/Natl, Washington D.c., USA
Distance from station: SW 49mi, 79km
Updated: Fri, 28-Nov-2014 7:52am EST
Partly cloudy
Partly cloudy
 Wind from W
Wind: W 12 mph , 19 km/h
Temperature: 37°F , 3°C
Wind Chill: 29°F , -2°C
Dew Point: 19°F , -7°C
Humidity: 48%
Barometer: 30.30 inHg , 1026.1 hPa
Clouds: Partly cloudy
Visibility: 10 miles , 16 km
Cloud details: Partly cloudy 12000 ft
2014/11/28 12:52 KDCA 281252Z 28010KT 10SM SCT120 03/M07 A3030 RMK AO2 SLP261 T00281067
 
KLNS - Lancaster, Pennsylvania, USA
Distance from station: N 49mi, 79km
Updated: Fri, 28-Nov-2014 7:53am EST
Clear
Clear
 Wind from WNW
Wind: WNW 7 mph , 11 km/h
Temperature: 28°F , -2°C
Wind Chill: 21°F , -6°C
Dew Point: 21°F , -6°C
Humidity: 74%
Barometer: 30.23 inHg , 1023.7 hPa
Clouds: Clear
Visibility: 10 miles , 16 km
2014/11/28 12:53 KLNS 281253Z 29006KT 10SM CLR M02/M06 A3023 RMK AO2 SLP241 T10171061
KILG - Wilmington, Delaware, USA
Distance from station: ENE 50mi, 81km
Updated: Fri, 28-Nov-2014 7:51am EST
Clear
Clear
 Wind from WNW
Wind: WNW 12 mph , 19 km/h
Temperature: 34°F , 1°C
Wind Chill: 25°F , -4°C
Dew Point: 21°F , -6°C
Humidity: 60%
Barometer: 30.24 inHg , 1024 hPa
Clouds: Clear
Visibility: 10 miles , 16 km
2014/11/28 12:51 KILG 281251Z 29010KT 10SM CLR 01/M06 A3024 RMK AO2 SLP241 T00061056